Terminal Aerodrome Forecast
Issued by NWS Chicago, IL

Home | Current Version | Previous Version | Graphics & Text | Print | Product List | Glossary On
Versions: 1 2 3 4 5 6 7 8 9 10 11 12 13 14 15 16 17 18 19 20 21 22 23 24 25 26 27 28 29 30 31 32 33 34 35 36 37 38 39 40
000
FTUS43 KLOT 050524
TAFRFD
TAF
KRFD 050524Z 0506/0606 08007KT 3SM -SHRA VCTS SCT025CB BKN045
     FM051100 10009KT 4SM -SHRA BR OVC010
     FM051600 10011KT P6SM SCT010 BKN035 PROB30 0517/0521 -SHRA
     FM060200 09007KT P6SM BKN010 BKN050=

USA.gov is the U.S. government's official web portal to all federal, state and local government web resources and services.